Airfield :
LOGIN :

Register | Disclaimer

   EN    FR    IT 

 










Legend :    VFR   Marginal VFR   IFR   Intensive IFR   Very Intensive IFR
Visi :
Ceiling :
>= 8 km
>= 3000ft
5 to 8 km
1000 to 3000 ft
1500m to 5 km
500 to 1000 ft
800 to 1500m
200 to 500 ft
< 800m
< 200 ft
Symbols :   Thunderstorms  Fog  Heavy snow  Heavy precipitations  Wind > 20 kt
SIGMETs :     Misc.  Thunderstorms  Icing  Turbulence  Mountain Waves  Volcanic Ashes







- Airport Elevation : 1906 ft
- IATA code : INN


LOWI - Innsbruck

CURRENT METAR :
  • 221750Z 09004KT 040V130 9999 FEW015 SCT060 BKN080 18/15 Q1016 NOSIG

EXPIRED METARs :
  • 221720Z 07006KT 9999 FEW015 SCT060 BKN080 18/15 Q1016 NOSIG
  • 221650Z 09006KT 060V120 9999 FEW015 SCT060 BKN075 19/15 Q1015 NOSIG
  • 221620Z 08004KT 040V120 9999 FEW015 SCT065 BKN075 20/15 Q1015 NOSIG
  • 221550Z 08005KT 050V120 9999 FEW015 SCT065 BKN075 19/14 Q1015 NOSIG
  • 221520Z 09005KT 050V130 9999 FEW015 SCT065 BKN075 19/15 Q1015 NOSIG

TAF TAF LOWI
Valid from the 22 at 18:00 until the 23 at 18:00 UTC


221715Z 2218/2318 08005KT 9999 FEW020 BKN070 TX23/2315Z TN14/2304Z
PROB40
TEMPO 2222/2302 29010KT SHRA SCT020 BKN050 FEW050TCU
PROB30 2302/2306 FEW003 BKN009
No reported NOTAMs for that airfield.



MET'MAP, your aeronautical weather chart ! - Copyright ORBIFLY December 2007 - Disclaimer

ORBIFLY MET'MAP TEAM :

Programming & Development : Alexandra Zaïnal
Concept & Development : Baudouin d'Aumeries
Co-Development & Prog : Marc-Olivier Méhu
Technical & hardware support : Manuel Goepfert

Contact : metmap@orbifly.com




SOURCES & CREDITS :

   NOAA